sensor_id;sensor_type;location;lat;lon;timestamp;P1;durP1;ratioP1;P2;durP2;ratioP2
74935;SDS011;63501;55.570;37.488;2022-12-18T00:01:28;9.75;;;4.85;;
74935;SDS011;63501;55.570;37.488;2022-12-18T00:03:54;8.23;;;4.15;;
74935;SDS011;63501;55.570;37.488;2022-12-18T00:06:21;7.30;;;3.00;;
74935;SDS011;63501;55.570;37.488;2022-12-18T00:08:49;8.65;;;4.35;;
74935;SDS011;63501;55.570;37.488;2022-12-18T00:11:15;9.38;;;4.57;;
74935;SDS011;63501;55.570;37.488;2022-12-18T00:13:47;9.30;;;4.38;;
74935;SDS011;63501;55.570;37.488;2022-12-18T00:16:14;9.30;;;4.03;;
74935;SDS011;63501;55.570;37.488;2022-12-18T00:18:43;10.65;;;4.78;;
74935;SDS011;63501;55.570;37.488;2022-12-18T00:21:10;8.07;;;3.90;;
74935;SDS011;63501;55.570;37.488;2022-12-18T00:23:37;8.38;;;3.78;;
74935;SDS011;63501;55.570;37.488;2022-12-18T00:26:05;7.00;;;3.25;;
74935;SDS011;63501;55.570;37.488;2022-12-18T00:28:34;8.30;;;4.10;;
74935;SDS011;63501;55.570;37.488;2022-12-18T00:31:33;9.57;;;4.13;;
74935;SDS011;63501;55.570;37.488;2022-12-18T00:33:53;8.82;;;3.67;;
74935;SDS011;63501;55.570;37.488;2022-12-18T00:38:47;7.63;;;3.65;;
74935;SDS011;63501;55.570;37.488;2022-12-18T00:41:14;9.35;;;3.83;;
74935;SDS011;63501;55.570;37.488;2022-12-18T00:44:01;7.22;;;3.65;;
74935;SDS011;63501;55.570;37.488;2022-12-18T00:46:28;11.48;;;4.13;;
74935;SDS011;63501;55.570;37.488;2022-12-18T00:48:54;8.65;;;4.10;;
74935;SDS011;63501;55.570;37.488;2022-12-18T00:51:20;8.95;;;3.60;;
74935;SDS011;63501;55.570;37.488;2022-12-18T00:53:45;8.20;;;4.35;;
74935;SDS011;63501;55.570;37.488;2022-12-18T00:56:11;8.45;;;3.83;;
74935;SDS011;63501;55.570;37.488;2022-12-18T00:58:37;8.45;;;3.97;;
74935;SDS011;63501;55.570;37.488;2022-12-18T01:01:06;8.50;;;4.25;;
74935;SDS011;63501;55.570;37.488;2022-12-18T01:03:32;7.90;;;3.88;;
74935;SDS011;63501;55.570;37.488;2022-12-18T01:05:58;6.70;;;3.70;;
74935;SDS011;63501;55.570;37.488;2022-12-18T01:08:23;7.13;;;3.55;;
74935;SDS011;63501;55.570;37.488;2022-12-18T01:10:50;7.70;;;3.47;;
74935;SDS011;63501;55.570;37.488;2022-12-18T01:13:16;8.55;;;3.65;;
74935;SDS011;63501;55.570;37.488;2022-12-18T01:15:48;9.43;;;3.88;;
74935;SDS011;63501;55.570;37.488;2022-12-18T01:18:14;9.45;;;4.38;;
74935;SDS011;63501;55.570;37.488;2022-12-18T01:20:40;8.13;;;3.78;;
74935;SDS011;63501;55.570;37.488;2022-12-18T01:23:05;7.18;;;3.42;;
74935;SDS011;63501;55.570;37.488;2022-12-18T01:25:31;5.60;;;3.15;;
74935;SDS011;63501;55.570;37.488;2022-12-18T01:27:56;8.57;;;3.95;;
74935;SDS011;63501;55.570;37.488;2022-12-18T01:30:22;6.75;;;2.95;;
74935;SDS011;63501;55.570;37.488;2022-12-18T01:32:48;6.40;;;3.15;;
74935;SDS011;63501;55.570;37.488;2022-12-18T01:35:14;7.93;;;4.50;;
74935;SDS011;63501;55.570;37.488;2022-12-18T01:37:39;6.97;;;3.22;;
74935;SDS011;63501;55.570;37.488;2022-12-18T01:40:05;5.63;;;3.15;;
74935;SDS011;63501;55.570;37.488;2022-12-18T01:42:31;8.82;;;3.88;;
74935;SDS011;63501;55.570;37.488;2022-12-18T01:47:29;8.52;;;3.92;;
74935;SDS011;63501;55.570;37.488;2022-12-18T01:50:03;9.30;;;4.05;;
74935;SDS011;63501;55.570;37.488;2022-12-18T01:52:35;7.85;;;3.67;;
74935;SDS011;63501;55.570;37.488;2022-12-18T01:55:03;7.05;;;3.55;;
74935;SDS011;63501;55.570;37.488;2022-12-18T01:57:31;8.10;;;3.85;;
74935;SDS011;63501;55.570;37.488;2022-12-18T02:00:03;7.10;;;3.13;;
74935;SDS011;63501;55.570;37.488;2022-12-18T02:02:32;6.80;;;3.33;;
74935;SDS011;63501;55.570;37.488;2022-12-18T02:04:57;7.75;;;3.55;;
74935;SDS011;63501;55.570;37.488;2022-12-18T02:10:51;6.15;;;2.78;;
74935;SDS011;63501;55.570;37.488;2022-12-18T02:18:45;6.40;;;3.15;;
74935;SDS011;63501;55.570;37.488;2022-12-18T02:29:39;6.65;;;3.03;;
74935;SDS011;63501;55.570;37.488;2022-12-18T02:32:10;9.07;;;3.22;;
74935;SDS011;63501;55.570;37.488;2022-12-18T02:34:41;7.80;;;3.17;;
74935;SDS011;63501;55.570;37.488;2022-12-18T02:37:11;8.98;;;3.88;;
74935;SDS011;63501;55.570;37.488;2022-12-18T02:39:40;8.63;;;3.60;;
74935;SDS011;63501;55.570;37.488;2022-12-18T02:42:08;7.53;;;3.65;;
74935;SDS011;63501;55.570;37.488;2022-12-18T02:44:34;8.40;;;3.45;;
74935;SDS011;63501;55.570;37.488;2022-12-18T02:47:09;6.53;;;3.22;;
74935;SDS011;63501;55.570;37.488;2022-12-18T03:01:11;6.43;;;3.03;;
74935;SDS011;63501;55.570;37.488;2022-12-18T03:07:01;6.18;;;2.97;;
74935;SDS011;63501;55.570;37.488;2022-12-18T03:09:34;6.93;;;3.22;;
74935;SDS011;63501;55.570;37.488;2022-12-18T03:12:09;7.72;;;3.38;;
74935;SDS011;63501;55.570;37.488;2022-12-18T03:14:54;5.45;;;2.60;;
74935;SDS011;63501;55.570;37.488;2022-12-18T03:17:31;7.53;;;3.42;;
74935;SDS011;63501;55.570;37.488;2022-12-18T03:19:58;7.03;;;3.00;;
74935;SDS011;63501;55.570;37.488;2022-12-18T03:22:30;4.90;;;2.47;;
74935;SDS011;63501;55.570;37.488;2022-12-18T03:24:59;6.55;;;3.55;;
74935;SDS011;63501;55.570;37.488;2022-12-18T03:27:29;5.43;;;2.92;;
74935;SDS011;63501;55.570;37.488;2022-12-18T03:30:06;6.38;;;3.60;;
74935;SDS011;63501;55.570;37.488;2022-12-18T03:32:46;5.50;;;2.67;;
74935;SDS011;63501;55.570;37.488;2022-12-18T03:35:18;7.10;;;3.25;;
74935;SDS011;63501;55.570;37.488;2022-12-18T03:37:48;5.60;;;3.25;;
74935;SDS011;63501;55.570;37.488;2022-12-18T03:40:14;8.40;;;3.50;;
74935;SDS011;63501;55.570;37.488;2022-12-18T03:42:52;7.97;;;3.60;;
74935;SDS011;63501;55.570;37.488;2022-12-18T03:45:27;5.63;;;2.63;;
74935;SDS011;63501;55.570;37.488;2022-12-18T03:48:04;6.20;;;3.08;;
74935;SDS011;63501;55.570;37.488;2022-12-18T03:56:06;7.97;;;3.47;;
74935;SDS011;63501;55.570;37.488;2022-12-18T03:58:34;7.35;;;3.45;;
74935;SDS011;63501;55.570;37.488;2022-12-18T04:01:04;7.30;;;2.67;;
74935;SDS011;63501;55.570;37.488;2022-12-18T04:03:35;7.43;;;3.03;;
74935;SDS011;63501;55.570;37.488;2022-12-18T04:06:01;7.07;;;3.15;;
74935;SDS011;63501;55.570;37.488;2022-12-18T04:08:28;5.60;;;2.50;;
74935;SDS011;63501;55.570;37.488;2022-12-18T04:10:54;6.72;;;3.17;;
74935;SDS011;63501;55.570;37.488;2022-12-18T04:13:23;4.53;;;2.60;;
74935;SDS011;63501;55.570;37.488;2022-12-18T04:15:52;4.18;;;2.17;;
74935;SDS011;63501;55.570;37.488;2022-12-18T04:18:18;5.43;;;2.70;;
74935;SDS011;63501;55.570;37.488;2022-12-18T04:20:44;4.43;;;2.42;;
74935;SDS011;63501;55.570;37.488;2022-12-18T04:23:10;5.55;;;2.10;;
74935;SDS011;63501;55.570;37.488;2022-12-18T04:25:36;6.25;;;2.75;;
74935;SDS011;63501;55.570;37.488;2022-12-18T04:28:01;6.03;;;3.08;;
74935;SDS011;63501;55.570;37.488;2022-12-18T04:30:27;5.25;;;2.33;;
74935;SDS011;63501;55.570;37.488;2022-12-18T04:32:52;5.95;;;2.75;;
74935;SDS011;63501;55.570;37.488;2022-12-18T04:35:18;7.53;;;3.50;;
74935;SDS011;63501;55.570;37.488;2022-12-18T04:37:43;5.90;;;3.28;;
74935;SDS011;63501;55.570;37.488;2022-12-18T04:40:09;6.03;;;3.10;;
74935;SDS011;63501;55.570;37.488;2022-12-18T04:42:35;7.20;;;3.20;;
74935;SDS011;63501;55.570;37.488;2022-12-18T04:45:01;4.38;;;2.45;;
74935;SDS011;63501;55.570;37.488;2022-12-18T04:47:28;7.45;;;2.88;;
74935;SDS011;63501;55.570;37.488;2022-12-18T04:49:54;7.10;;;2.97;;
74935;SDS011;63501;55.570;37.488;2022-12-18T04:52:19;4.43;;;2.10;;
74935;SDS011;63501;55.570;37.488;2022-12-18T04:54:45;5.38;;;2.30;;
74935;SDS011;63501;55.570;37.488;2022-12-18T04:57:11;5.47;;;2.88;;
74935;SDS011;63501;55.570;37.488;2022-12-18T04:59:37;7.30;;;3.33;;
74935;SDS011;63501;55.570;37.488;2022-12-18T05:02:03;6.68;;;3.28;;
74935;SDS011;63501;55.570;37.488;2022-12-18T05:04:29;6.18;;;2.97;;
74935;SDS011;63501;55.570;37.488;2022-12-18T05:06:54;5.28;;;2.67;;
74935;SDS011;63501;55.570;37.488;2022-12-18T05:09:20;4.97;;;2.13;;
74935;SDS011;63501;55.570;37.488;2022-12-18T05:14:16;4.70;;;2.30;;
74935;SDS011;63501;55.570;37.488;2022-12-18T05:16:42;5.70;;;2.92;;
74935;SDS011;63501;55.570;37.488;2022-12-18T05:19:10;5.45;;;2.58;;
74935;SDS011;63501;55.570;37.488;2022-12-18T05:21:36;5.75;;;3.10;;
74935;SDS011;63501;55.570;37.488;2022-12-18T05:24:01;5.30;;;2.42;;
74935;SDS011;63501;55.570;37.488;2022-12-18T05:26:27;5.35;;;2.20;;
74935;SDS011;63501;55.570;37.488;2022-12-18T05:28:56;5.50;;;2.72;;
74935;SDS011;63501;55.570;37.488;2022-12-18T05:31:21;6.32;;;3.22;;
74935;SDS011;63501;55.570;37.488;2022-12-18T05:33:47;6.05;;;3.13;;
74935;SDS011;63501;55.570;37.488;2022-12-18T05:36:12;4.85;;;2.38;;
74935;SDS011;63501;55.570;37.488;2022-12-18T05:38:38;6.80;;;3.33;;
74935;SDS011;63501;55.570;37.488;2022-12-18T05:41:05;4.63;;;2.60;;
74935;SDS011;63501;55.570;37.488;2022-12-18T05:43:31;6.38;;;2.67;;
74935;SDS011;63501;55.570;37.488;2022-12-18T05:46:02;4.95;;;2.28;;
74935;SDS011;63501;55.570;37.488;2022-12-18T05:48:33;3.65;;;2.20;;
74935;SDS011;63501;55.570;37.488;2022-12-18T05:51:03;6.07;;;2.63;;
74935;SDS011;63501;55.570;37.488;2022-12-18T05:53:30;6.55;;;2.70;;
74935;SDS011;63501;55.570;37.488;2022-12-18T05:55:59;5.32;;;2.47;;
74935;SDS011;63501;55.570;37.488;2022-12-18T05:58:25;6.43;;;3.00;;
74935;SDS011;63501;55.570;37.488;2022-12-18T06:00:51;6.50;;;2.95;;
74935;SDS011;63501;55.570;37.488;2022-12-18T06:03:16;6.78;;;2.90;;
74935;SDS011;63501;55.570;37.488;2022-12-18T06:05:43;5.07;;;2.70;;
74935;SDS011;63501;55.570;37.488;2022-12-18T06:08:10;5.63;;;3.15;;
74935;SDS011;63501;55.570;37.488;2022-12-18T06:10:37;4.03;;;1.42;;
74935;SDS011;63501;55.570;37.488;2022-12-18T06:13:03;4.97;;;2.47;;
74935;SDS011;63501;55.570;37.488;2022-12-18T06:15:29;6.90;;;2.92;;
74935;SDS011;63501;55.570;37.488;2022-12-18T06:17:54;5.20;;;2.78;;
74935;SDS011;63501;55.570;37.488;2022-12-18T06:20:20;5.85;;;3.08;;
74935;SDS011;63501;55.570;37.488;2022-12-18T06:22:46;6.50;;;3.15;;
74935;SDS011;63501;55.570;37.488;2022-12-18T06:25:11;6.63;;;3.03;;
74935;SDS011;63501;55.570;37.488;2022-12-18T06:27:39;5.78;;;2.90;;
74935;SDS011;63501;55.570;37.488;2022-12-18T06:30:05;4.90;;;2.28;;
74935;SDS011;63501;55.570;37.488;2022-12-18T06:32:31;5.78;;;2.25;;
74935;SDS011;63501;55.570;37.488;2022-12-18T06:34:57;7.30;;;3.20;;
74935;SDS011;63501;55.570;37.488;2022-12-18T06:37:23;6.60;;;2.95;;
74935;SDS011;63501;55.570;37.488;2022-12-18T06:39:52;5.57;;;2.42;;
74935;SDS011;63501;55.570;37.488;2022-12-18T06:42:18;5.68;;;2.78;;
74935;SDS011;63501;55.570;37.488;2022-12-18T06:44:44;4.82;;;2.70;;
74935;SDS011;63501;55.570;37.488;2022-12-18T06:47:09;6.40;;;3.40;;
74935;SDS011;63501;55.570;37.488;2022-12-18T06:49:35;6.00;;;2.83;;
74935;SDS011;63501;55.570;37.488;2022-12-18T06:52:01;5.03;;;2.35;;
74935;SDS011;63501;55.570;37.488;2022-12-18T06:54:26;6.28;;;2.58;;
74935;SDS011;63501;55.570;37.488;2022-12-18T06:56:52;5.82;;;3.00;;
74935;SDS011;63501;55.570;37.488;2022-12-18T06:59:18;5.65;;;2.92;;
74935;SDS011;63501;55.570;37.488;2022-12-18T07:01:44;5.93;;;3.50;;
74935;SDS011;63501;55.570;37.488;2022-12-18T07:04:09;9.15;;;3.97;;
74935;SDS011;63501;55.570;37.488;2022-12-18T07:06:35;7.00;;;3.35;;
74935;SDS011;63501;55.570;37.488;2022-12-18T07:09:01;7.28;;;3.33;;
74935;SDS011;63501;55.570;37.488;2022-12-18T07:11:26;4.07;;;1.95;;
74935;SDS011;63501;55.570;37.488;2022-12-18T07:13:52;5.22;;;2.60;;
74935;SDS011;63501;55.570;37.488;2022-12-18T07:16:19;5.55;;;2.88;;
74935;SDS011;63501;55.570;37.488;2022-12-18T07:18:45;4.35;;;2.10;;
74935;SDS011;63501;55.570;37.488;2022-12-18T07:21:13;5.13;;;2.63;;
74935;SDS011;63501;55.570;37.488;2022-12-18T07:23:40;6.50;;;3.38;;
74935;SDS011;63501;55.570;37.488;2022-12-18T07:26:10;5.10;;;2.47;;
74935;SDS011;63501;55.570;37.488;2022-12-18T07:28:37;6.70;;;2.63;;
74935;SDS011;63501;55.570;37.488;2022-12-18T07:31:05;5.40;;;3.05;;
74935;SDS011;63501;55.570;37.488;2022-12-18T07:33:32;5.95;;;3.08;;
74935;SDS011;63501;55.570;37.488;2022-12-18T07:35:59;6.65;;;3.47;;
74935;SDS011;63501;55.570;37.488;2022-12-18T07:38:25;7.53;;;3.20;;
74935;SDS011;63501;55.570;37.488;2022-12-18T07:40:51;6.50;;;2.63;;
74935;SDS011;63501;55.570;37.488;2022-12-18T07:43:16;6.80;;;2.95;;
74935;SDS011;63501;55.570;37.488;2022-12-18T07:45:42;3.53;;;1.98;;
74935;SDS011;63501;55.570;37.488;2022-12-18T07:48:08;6.45;;;2.88;;
74935;SDS011;63501;55.570;37.488;2022-12-18T07:50:34;6.20;;;3.05;;
74935;SDS011;63501;55.570;37.488;2022-12-18T07:53:00;5.85;;;3.33;;
74935;SDS011;63501;55.570;37.488;2022-12-18T07:55:29;4.57;;;2.30;;
74935;SDS011;63501;55.570;37.488;2022-12-18T07:57:55;6.35;;;2.75;;
74935;SDS011;63501;55.570;37.488;2022-12-18T08:00:21;6.78;;;2.88;;
74935;SDS011;63501;55.570;37.488;2022-12-18T08:02:46;7.53;;;3.08;;
74935;SDS011;63501;55.570;37.488;2022-12-18T08:05:12;6.35;;;2.78;;
74935;SDS011;63501;55.570;37.488;2022-12-18T08:07:38;5.80;;;3.03;;
74935;SDS011;63501;55.570;37.488;2022-12-18T08:10:05;5.50;;;2.60;;
74935;SDS011;63501;55.570;37.488;2022-12-18T08:12:31;6.25;;;3.40;;
74935;SDS011;63501;55.570;37.488;2022-12-18T08:14:57;5.75;;;2.80;;
74935;SDS011;63501;55.570;37.488;2022-12-18T08:17:22;4.97;;;2.15;;
74935;SDS011;63501;55.570;37.488;2022-12-18T08:19:48;5.10;;;2.95;;
74935;SDS011;63501;55.570;37.488;2022-12-18T08:22:13;5.50;;;3.08;;
74935;SDS011;63501;55.570;37.488;2022-12-18T08:24:39;6.60;;;3.08;;
74935;SDS011;63501;55.570;37.488;2022-12-18T08:27:04;6.15;;;2.53;;
74935;SDS011;63501;55.570;37.488;2022-12-18T08:29:30;5.10;;;2.88;;
74935;SDS011;63501;55.570;37.488;2022-12-18T08:31:57;4.65;;;2.13;;
74935;SDS011;63501;55.570;37.488;2022-12-18T08:34:22;4.22;;;2.45;;
74935;SDS011;63501;55.570;37.488;2022-12-18T08:36:48;6.03;;;2.67;;
74935;SDS011;63501;55.570;37.488;2022-12-18T08:39:14;5.93;;;2.95;;
74935;SDS011;63501;55.570;37.488;2022-12-18T08:41:39;7.25;;;2.92;;
74935;SDS011;63501;55.570;37.488;2022-12-18T08:44:06;5.13;;;2.72;;
74935;SDS011;63501;55.570;37.488;2022-12-18T08:46:51;6.10;;;2.67;;
74935;SDS011;63501;55.570;37.488;2022-12-18T08:49:16;6.97;;;2.85;;
74935;SDS011;63501;55.570;37.488;2022-12-18T08:51:42;7.68;;;2.78;;
74935;SDS011;63501;55.570;37.488;2022-12-18T08:54:12;5.65;;;2.65;;
74935;SDS011;63501;55.570;37.488;2022-12-18T08:56:39;5.47;;;2.97;;
74935;SDS011;63501;55.570;37.488;2022-12-18T08:59:04;5.45;;;2.95;;
74935;SDS011;63501;55.570;37.488;2022-12-18T09:01:30;3.92;;;2.40;;
74935;SDS011;63501;55.570;37.488;2022-12-18T09:03:56;5.47;;;2.47;;
74935;SDS011;63501;55.570;37.488;2022-12-18T09:06:22;4.38;;;2.40;;
74935;SDS011;63501;55.570;37.488;2022-12-18T09:08:48;5.03;;;2.75;;
74935;SDS011;63501;55.570;37.488;2022-12-18T09:11:15;4.68;;;2.80;;
74935;SDS011;63501;55.570;37.488;2022-12-18T09:13:45;6.53;;;2.40;;
74935;SDS011;63501;55.570;37.488;2022-12-18T09:16:11;6.38;;;2.90;;
74935;SDS011;63501;55.570;37.488;2022-12-18T09:18:37;5.50;;;2.85;;
74935;SDS011;63501;55.570;37.488;2022-12-18T09:21:09;5.32;;;2.67;;
74935;SDS011;63501;55.570;37.488;2022-12-18T09:23:36;4.82;;;2.10;;
74935;SDS011;63501;55.570;37.488;2022-12-18T09:26:01;5.85;;;2.83;;
74935;SDS011;63501;55.570;37.488;2022-12-18T09:28:27;6.35;;;2.72;;
74935;SDS011;63501;55.570;37.488;2022-12-18T09:30:53;5.97;;;2.72;;
74935;SDS011;63501;55.570;37.488;2022-12-18T09:33:19;5.97;;;2.95;;
74935;SDS011;63501;55.570;37.488;2022-12-18T09:35:45;4.38;;;1.98;;
74935;SDS011;63501;55.570;37.488;2022-12-18T09:38:12;6.47;;;2.72;;
74935;SDS011;63501;55.570;37.488;2022-12-18T09:40:41;10.55;;;4.25;;
74935;SDS011;63501;55.570;37.488;2022-12-18T09:43:12;5.38;;;2.40;;
74935;SDS011;63501;55.570;37.488;2022-12-18T09:45:53;6.18;;;2.65;;
74935;SDS011;63501;55.570;37.488;2022-12-18T09:48:28;7.45;;;3.03;;
74935;SDS011;63501;55.570;37.488;2022-12-18T09:51:01;5.53;;;2.30;;
74935;SDS011;63501;55.570;37.488;2022-12-18T09:53:31;5.75;;;2.50;;
74935;SDS011;63501;55.570;37.488;2022-12-18T09:56:00;5.78;;;2.50;;
74935;SDS011;63501;55.570;37.488;2022-12-18T10:01:01;5.15;;;2.30;;
74935;SDS011;63501;55.570;37.488;2022-12-18T10:03:27;5.90;;;2.40;;
74935;SDS011;63501;55.570;37.488;2022-12-18T10:06:02;6.75;;;2.85;;
74935;SDS011;63501;55.570;37.488;2022-12-18T10:11:22;4.95;;;2.22;;
74935;SDS011;63501;55.570;37.488;2022-12-18T10:13:57;3.72;;;2.17;;
74935;SDS011;63501;55.570;37.488;2022-12-18T10:19:22;7.43;;;2.85;;
74935;SDS011;63501;55.570;37.488;2022-12-18T10:24:52;6.43;;;2.78;;
74935;SDS011;63501;55.570;37.488;2022-12-18T10:27:29;4.70;;;2.50;;
74935;SDS011;63501;55.570;37.488;2022-12-18T10:29:56;6.57;;;2.85;;
74935;SDS011;63501;55.570;37.488;2022-12-18T10:32:23;4.75;;;2.25;;
74935;SDS011;63501;55.570;37.488;2022-12-18T10:34:53;4.53;;;2.10;;
74935;SDS011;63501;55.570;37.488;2022-12-18T10:37:22;4.60;;;2.20;;
74935;SDS011;63501;55.570;37.488;2022-12-18T10:42:39;4.15;;;2.50;;
74935;SDS011;63501;55.570;37.488;2022-12-18T10:45:15;4.50;;;2.00;;
74935;SDS011;63501;55.570;37.488;2022-12-18T10:47:46;3.88;;;1.85;;
74935;SDS011;63501;55.570;37.488;2022-12-18T10:50:29;5.25;;;2.35;;
74935;SDS011;63501;55.570;37.488;2022-12-18T10:53:01;6.10;;;2.00;;
74935;SDS011;63501;55.570;37.488;2022-12-18T10:55:34;4.85;;;2.25;;
74935;SDS011;63501;55.570;37.488;2022-12-18T11:06:32;4.63;;;2.35;;
74935;SDS011;63501;55.570;37.488;2022-12-18T11:08:59;4.63;;;2.50;;
74935;SDS011;63501;55.570;37.488;2022-12-18T11:11:26;5.50;;;2.15;;
74935;SDS011;63501;55.570;37.488;2022-12-18T11:13:59;2.70;;;1.58;;
74935;SDS011;63501;55.570;37.488;2022-12-18T11:16:26;3.90;;;1.80;;
74935;SDS011;63501;55.570;37.488;2022-12-18T11:19:06;5.63;;;2.13;;
74935;SDS011;63501;55.570;37.488;2022-12-18T11:21:40;5.82;;;2.67;;
74935;SDS011;63501;55.570;37.488;2022-12-18T11:24:07;5.80;;;2.15;;
74935;SDS011;63501;55.570;37.488;2022-12-18T11:26:44;3.03;;;1.67;;
74935;SDS011;63501;55.570;37.488;2022-12-18T11:29:12;2.65;;;1.67;;
74935;SDS011;63501;55.570;37.488;2022-12-18T11:31:42;5.65;;;2.13;;
74935;SDS011;63501;55.570;37.488;2022-12-18T11:34:12;4.03;;;2.00;;
74935;SDS011;63501;55.570;37.488;2022-12-18T11:36:45;3.70;;;1.88;;
74935;SDS011;63501;55.570;37.488;2022-12-18T11:39:24;5.45;;;2.50;;
74935;SDS011;63501;55.570;37.488;2022-12-18T11:42:01;3.85;;;1.90;;
74935;SDS011;63501;55.570;37.488;2022-12-18T11:44:41;5.32;;;2.58;;
74935;SDS011;63501;55.570;37.488;2022-12-18T11:47:15;4.53;;;2.45;;
74935;SDS011;63501;55.570;37.488;2022-12-18T11:49:42;6.30;;;2.33;;
74935;SDS011;63501;55.570;37.488;2022-12-18T11:54:46;6.50;;;2.60;;
74935;SDS011;63501;55.570;37.488;2022-12-18T12:00:18;5.35;;;2.10;;
74935;SDS011;63501;55.570;37.488;2022-12-18T12:15:42;4.57;;;2.30;;
74935;SDS011;63501;55.570;37.488;2022-12-18T12:26:12;3.22;;;1.77;;
74935;SDS011;63501;55.570;37.488;2022-12-18T12:34:20;5.22;;;2.03;;
74935;SDS011;63501;55.570;37.488;2022-12-18T12:37:25;4.20;;;1.92;;
74935;SDS011;63501;55.570;37.488;2022-12-18T12:40:02;2.97;;;1.67;;
74935;SDS011;63501;55.570;37.488;2022-12-18T12:45:40;4.85;;;2.22;;
74935;SDS011;63501;55.570;37.488;2022-12-18T12:48:46;3.45;;;1.35;;
74935;SDS011;63501;55.570;37.488;2022-12-18T12:51:25;3.95;;;2.00;;
74935;SDS011;63501;55.570;37.488;2022-12-18T12:53:56;5.55;;;2.00;;
74935;SDS011;63501;55.570;37.488;2022-12-18T12:56:24;4.55;;;1.90;;
74935;SDS011;63501;55.570;37.488;2022-12-18T12:59:03;3.15;;;1.70;;
74935;SDS011;63501;55.570;37.488;2022-12-18T13:02:22;3.05;;;1.73;;
74935;SDS011;63501;55.570;37.488;2022-12-18T13:04:47;2.67;;;1.38;;
74935;SDS011;63501;55.570;37.488;2022-12-18T13:20:32;3.50;;;1.63;;
74935;SDS011;63501;55.570;37.488;2022-12-18T13:25:48;3.70;;;1.73;;
74935;SDS011;63501;55.570;37.488;2022-12-18T13:28:18;4.47;;;1.45;;
74935;SDS011;63501;55.570;37.488;2022-12-18T13:30:47;4.47;;;1.70;;
74935;SDS011;63501;55.570;37.488;2022-12-18T13:35:53;5.72;;;2.42;;
74935;SDS011;63501;55.570;37.488;2022-12-18T13:38:37;4.00;;;1.88;;
74935;SDS011;63501;55.570;37.488;2022-12-18T13:43:48;3.63;;;1.77;;
74935;SDS011;63501;55.570;37.488;2022-12-18T13:46:19;9.02;;;2.55;;
74935;SDS011;63501;55.570;37.488;2022-12-18T13:51:50;6.00;;;2.72;;
74935;SDS011;63501;55.570;37.488;2022-12-18T13:54:36;9.50;;;3.75;;
74935;SDS011;63501;55.570;37.488;2022-12-18T13:57:05;6.80;;;2.60;;
74935;SDS011;63501;55.570;37.488;2022-12-18T13:59:50;10.70;;;3.60;;
74935;SDS011;63501;55.570;37.488;2022-12-18T14:02:17;7.22;;;2.80;;
74935;SDS011;63501;55.570;37.488;2022-12-18T14:04:46;10.48;;;3.63;;
74935;SDS011;63501;55.570;37.488;2022-12-18T14:07:14;9.30;;;3.38;;
74935;SDS011;63501;55.570;37.488;2022-12-18T14:09:43;8.77;;;3.40;;
74935;SDS011;63501;55.570;37.488;2022-12-18T14:15:06;8.10;;;2.50;;
74935;SDS011;63501;55.570;37.488;2022-12-18T14:18:01;10.82;;;3.70;;
74935;SDS011;63501;55.570;37.488;2022-12-18T14:20:34;9.82;;;3.35;;
74935;SDS011;63501;55.570;37.488;2022-12-18T14:23:00;8.57;;;4.03;;
74935;SDS011;63501;55.570;37.488;2022-12-18T14:25:27;6.30;;;2.28;;
74935;SDS011;63501;55.570;37.488;2022-12-18T14:28:08;5.97;;;2.05;;
74935;SDS011;63501;55.570;37.488;2022-12-18T14:30:43;5.93;;;1.88;;
74935;SDS011;63501;55.570;37.488;2022-12-18T14:33:14;6.32;;;2.65;;
74935;SDS011;63501;55.570;37.488;2022-12-18T14:35:58;5.38;;;2.30;;
74935;SDS011;63501;55.570;37.488;2022-12-18T14:41:02;6.38;;;2.70;;
74935;SDS011;63501;55.570;37.488;2022-12-18T14:43:31;5.00;;;2.17;;
74935;SDS011;63501;55.570;37.488;2022-12-18T14:45:59;8.07;;;2.95;;
74935;SDS011;63501;55.570;37.488;2022-12-18T14:53:42;5.30;;;2.40;;
74935;SDS011;63501;55.570;37.488;2022-12-18T14:56:16;8.02;;;3.25;;
74935;SDS011;63501;55.570;37.488;2022-12-18T14:58:50;6.22;;;2.70;;
74935;SDS011;63501;55.570;37.488;2022-12-18T15:01:20;5.35;;;2.50;;
74935;SDS011;63501;55.570;37.488;2022-12-18T15:03:46;9.73;;;3.80;;
74935;SDS011;63501;55.570;37.488;2022-12-18T15:06:15;5.10;;;2.30;;
74935;SDS011;63501;55.570;37.488;2022-12-18T15:08:42;8.85;;;3.22;;
74935;SDS011;63501;55.570;37.488;2022-12-18T15:11:29;6.38;;;2.78;;
74935;SDS011;63501;55.570;37.488;2022-12-18T15:14:00;8.07;;;3.17;;
74935;SDS011;63501;55.570;37.488;2022-12-18T15:16:49;5.18;;;1.98;;
74935;SDS011;63501;55.570;37.488;2022-12-18T15:19:16;6.28;;;2.67;;
74935;SDS011;63501;55.570;37.488;2022-12-18T15:21:42;5.43;;;1.90;;
74935;SDS011;63501;55.570;37.488;2022-12-18T15:24:15;5.65;;;2.63;;
74935;SDS011;63501;55.570;37.488;2022-12-18T15:29:17;5.68;;;2.58;;
74935;SDS011;63501;55.570;37.488;2022-12-18T15:31:45;6.63;;;2.80;;
74935;SDS011;63501;55.570;37.488;2022-12-18T15:34:30;7.38;;;2.75;;
74935;SDS011;63501;55.570;37.488;2022-12-18T15:36:57;6.15;;;2.45;;
74935;SDS011;63501;55.570;37.488;2022-12-18T15:39:22;3.70;;;1.70;;
74935;SDS011;63501;55.570;37.488;2022-12-18T15:41:48;4.55;;;2.30;;
74935;SDS011;63501;55.570;37.488;2022-12-18T15:44:32;5.95;;;2.42;;
74935;SDS011;63501;55.570;37.488;2022-12-18T15:46:58;7.05;;;3.03;;
74935;SDS011;63501;55.570;37.488;2022-12-18T15:49:24;4.63;;;2.25;;
74935;SDS011;63501;55.570;37.488;2022-12-18T15:51:51;4.47;;;2.25;;
74935;SDS011;63501;55.570;37.488;2022-12-18T15:54:19;5.18;;;2.08;;
74935;SDS011;63501;55.570;37.488;2022-12-18T15:57:08;6.88;;;2.65;;
74935;SDS011;63501;55.570;37.488;2022-12-18T15:59:52;4.30;;;2.22;;
74935;SDS011;63501;55.570;37.488;2022-12-18T16:02:21;5.63;;;2.25;;
74935;SDS011;63501;55.570;37.488;2022-12-18T16:04:47;4.82;;;2.42;;
74935;SDS011;63501;55.570;37.488;2022-12-18T16:07:14;6.03;;;2.97;;
74935;SDS011;63501;55.570;37.488;2022-12-18T16:09:40;5.78;;;2.60;;
74935;SDS011;63501;55.570;37.488;2022-12-18T16:12:09;6.88;;;3.47;;
74935;SDS011;63501;55.570;37.488;2022-12-18T16:14:40;6.03;;;2.50;;
74935;SDS011;63501;55.570;37.488;2022-12-18T16:17:08;7.40;;;3.08;;
74935;SDS011;63501;55.570;37.488;2022-12-18T16:19:36;7.28;;;3.20;;
74935;SDS011;63501;55.570;37.488;2022-12-18T16:22:01;4.95;;;3.00;;
74935;SDS011;63501;55.570;37.488;2022-12-18T16:24:28;5.38;;;2.25;;
74935;SDS011;63501;55.570;37.488;2022-12-18T16:26:56;4.55;;;2.45;;
74935;SDS011;63501;55.570;37.488;2022-12-18T16:31:52;3.40;;;1.75;;
74935;SDS011;63501;55.570;37.488;2022-12-18T16:34:26;3.20;;;1.42;;
74935;SDS011;63501;55.570;37.488;2022-12-18T16:36:54;3.10;;;1.50;;
74935;SDS011;63501;55.570;37.488;2022-12-18T16:39:24;3.70;;;1.80;;
74935;SDS011;63501;55.570;37.488;2022-12-18T16:41:50;7.35;;;3.20;;
74935;SDS011;63501;55.570;37.488;2022-12-18T16:44:16;6.63;;;2.58;;
74935;SDS011;63501;55.570;37.488;2022-12-18T16:46:41;4.90;;;2.70;;
74935;SDS011;63501;55.570;37.488;2022-12-18T16:49:10;4.38;;;2.13;;
74935;SDS011;63501;55.570;37.488;2022-12-18T16:51:36;3.20;;;1.38;;
74935;SDS011;63501;55.570;37.488;2022-12-18T16:54:02;5.75;;;2.53;;
74935;SDS011;63501;55.570;37.488;2022-12-18T16:56:28;6.00;;;2.97;;
74935;SDS011;63501;55.570;37.488;2022-12-18T16:58:55;7.13;;;3.60;;
74935;SDS011;63501;55.570;37.488;2022-12-18T17:01:23;6.57;;;2.72;;
74935;SDS011;63501;55.570;37.488;2022-12-18T17:06:18;5.75;;;2.42;;
74935;SDS011;63501;55.570;37.488;2022-12-18T17:08:45;5.32;;;2.40;;
74935;SDS011;63501;55.570;37.488;2022-12-18T17:11:10;4.25;;;2.55;;